Time;durP1;ratioP1;P1;durP2;ratioP2;P2;SDS_P1;SDS_P2;PMS_P1;PMS_P2;Temp;Humidity;BMP_temperature;BMP_pressure;BME280_temperature;BME280_humidity;BME280_pressure;Samples;Min_cycle;Max_cycle;Signal;HPM_P1;HPM_P2
2022/02/23 00:01:07;;;;;;;16.58;2.75;;;7.20;99.90;;;;;;6137110;23;20501;-89
2022/02/23 00:03:33;;;;;;;15.63;2.60;;;7.20;99.90;;;;;;6160286;23;20005;-91
2022/02/23 00:05:59;;;;;;;19.90;2.85;;;7.20;99.90;;;;;;6161419;23;20438;-90
2022/02/23 00:08:25;;;;;;;17.52;3.10;;;7.10;99.90;;;;;;6137078;23;20005;-89
2022/02/23 00:10:51;;;;;;;23.58;4.05;;;7.20;99.90;;;;;;6136720;23;20016;-89
2022/02/23 00:13:16;;;;;;;22.73;3.40;;;7.10;99.90;;;;;;6187429;23;20068;-90
2022/02/23 00:15:42;;;;;;;18.85;2.80;;;7.10;99.90;;;;;;6137084;23;20001;-90
2022/02/23 00:18:12;;;;;;;22.25;3.20;;;7.10;99.90;;;;;;6136833;23;20001;-89
2022/02/23 00:20:38;;;;;;;27.58;3.65;;;7.10;99.90;;;;;;6161275;23;20009;-90
2022/02/23 00:23:04;;;;;;;26.00;4.65;;;7.10;99.90;;;;;;6161111;23;20140;-90
2022/02/23 00:25:30;;;;;;;22.90;3.53;;;7.00;99.90;;;;;;6136681;23;20428;-89
2022/02/23 00:27:55;;;;;;;20.20;3.53;;;7.00;99.90;;;;;;6161285;23;20043;-90
2022/02/23 00:30:21;;;;;;;24.33;3.40;;;7.00;99.90;;;;;;6161000;23;20423;-89
2022/02/23 00:32:47;;;;;;;23.13;4.10;;;7.00;99.90;;;;;;6160976;23;20439;-89
2022/02/23 00:35:12;;;;;;;19.67;3.15;;;6.90;99.90;;;;;;6136388;23;20009;-89
2022/02/23 00:37:38;;;;;;;14.20;3.33;;;6.90;99.90;;;;;;6136596;23;20101;-89
2022/02/23 00:40:04;;;;;;;18.00;2.58;;;6.90;99.90;;;;;;6136542;23;20017;-89
2022/02/23 00:42:30;;;;;;;22.42;3.92;;;6.90;99.90;;;;;;6136300;23;20254;-89
2022/02/23 00:44:56;;;;;;;24.60;3.38;;;6.90;99.90;;;;;;6137494;23;20065;-89
2022/02/23 00:47:21;;;;;;;22.90;3.38;;;6.80;99.90;;;;;;6137107;23;20005;-89
2022/02/23 00:49:47;;;;;;;25.02;5.55;;;6.80;99.90;;;;;;6112177;23;20005;-90
2022/02/23 00:52:13;;;;;;;20.90;3.35;;;6.80;99.90;;;;;;6136530;23;20152;-89
2022/02/23 00:54:39;;;;;;;19.05;3.70;;;6.80;99.90;;;;;;6186779;23;20008;-89
2022/02/23 00:57:05;;;;;;;25.77;3.15;;;6.80;99.90;;;;;;6187053;23;20001;-89
2022/02/23 00:59:30;;;;;;;24.05;3.55;;;6.80;99.90;;;;;;6111925;23;20061;-90
2022/02/23 01:01:56;;;;;;;23.98;4.40;;;6.70;99.90;;;;;;6136425;23;20088;-89
2022/02/23 01:04:21;;;;;;;22.92;3.17;;;6.70;99.90;;;;;;6160971;23;20012;-89
2022/02/23 01:06:47;;;;;;;14.50;2.58;;;6.70;99.90;;;;;;6160849;23;20417;-89
2022/02/23 01:09:13;;;;;;;19.77;3.25;;;6.70;99.90;;;;;;6136264;23;20009;-89
2022/02/23 01:11:40;;;;;;;19.00;3.03;;;6.70;99.90;;;;;;6161043;23;20013;-89
2022/02/23 01:14:07;;;;;;;16.80;3.10;;;6.60;99.90;;;;;;6136398;23;20431;-90
2022/02/23 01:16:33;;;;;;;24.23;3.78;;;6.70;99.90;;;;;;6186693;23;20035;-89
2022/02/23 01:18:59;;;;;;;22.20;3.45;;;6.70;99.90;;;;;;6135919;23;20331;-89
2022/02/23 01:21:24;;;;;;;20.13;4.30;;;6.60;99.90;;;;;;6111585;23;20018;-91
2022/02/23 01:23:50;;;;;;;16.55;2.53;;;6.60;99.90;;;;;;6111610;23;20009;-90
2022/02/23 01:26:16;;;;;;;19.63;3.72;;;6.60;99.90;;;;;;6135972;23;20009;-89
2022/02/23 01:28:42;;;;;;;17.08;2.70;;;6.60;99.90;;;;;;6187172;23;20008;-90
2022/02/23 01:31:08;;;;;;;14.00;2.95;;;6.60;99.90;;;;;;6135817;23;20009;-89
2022/02/23 01:33:33;;;;;;;16.85;2.85;;;6.50;99.90;;;;;;6135842;23;20036;-89
2022/02/23 01:35:59;;;;;;;19.55;3.15;;;6.50;99.90;;;;;;6160808;23;20005;-89
2022/02/23 01:38:25;;;;;;;14.60;2.72;;;6.50;99.90;;;;;;6136184;23;20016;-89
2022/02/23 01:40:51;;;;;;;17.30;2.92;;;6.50;99.90;;;;;;6186678;23;20323;-89
2022/02/23 01:43:17;;;;;;;22.02;3.95;;;6.50;99.90;;;;;;6186582;23;20426;-89
2022/02/23 01:45:42;;;;;;;17.55;3.55;;;6.50;99.90;;;;;;6160638;23;20005;-89
2022/02/23 01:48:08;;;;;;;17.33;3.10;;;6.40;99.90;;;;;;6135957;23;20005;-89
2022/02/23 01:50:34;;;;;;;17.02;2.85;;;6.40;99.90;;;;;;6160564;23;20416;-89
2022/02/23 01:53:00;;;;;;;33.70;5.20;;;6.40;99.90;;;;;;6160529;23;20009;-89
2022/02/23 01:55:26;;;;;;;20.50;2.88;;;6.40;99.90;;;;;;6160706;23;20079;-89
2022/02/23 01:57:52;;;;;;;18.38;3.05;;;6.40;99.90;;;;;;6162015;23;20028;-89
2022/02/23 02:00:18;;;;;;;20.23;2.40;;;6.40;99.90;;;;;;6144112;23;19989;-90
2022/02/23 02:02:46;;;;;;;16.58;2.60;;;6.30;99.90;;;;;;6169865;23;20001;-90
2022/02/23 02:05:14;;;;;;;18.55;3.70;;;6.40;99.90;;;;;;6187387;23;20001;-90
2022/02/23 02:07:39;;;;;;;20.20;3.47;;;6.30;99.90;;;;;;6136680;23;20328;-90
2022/02/23 02:10:06;;;;;;;18.23;3.25;;;6.30;99.90;;;;;;6160713;23;20005;-89
2022/02/23 02:12:32;;;;;;;17.13;3.58;;;6.30;99.90;;;;;;6135992;23;20432;-89
2022/02/23 02:14:59;;;;;;;20.25;4.22;;;6.30;99.90;;;;;;6136436;23;20005;-89
2022/02/23 02:17:25;;;;;;;25.77;3.20;;;6.30;99.90;;;;;;6160520;23;20001;-89
2022/02/23 02:19:51;;;;;;;18.05;3.45;;;6.30;99.90;;;;;;6137589;23;20005;-90
2022/02/23 02:22:17;;;;;;;17.05;2.85;;;6.30;99.90;;;;;;6149179;23;20020;-89
2022/02/23 02:24:43;;;;;;;21.25;2.85;;;6.20;99.90;;;;;;6201991;23;19997;-88
2022/02/23 02:27:11;;;;;;;15.98;3.25;;;6.30;99.90;;;;;;6169145;23;20435;-89
2022/02/23 02:29:38;;;;;;;21.02;2.88;;;6.20;99.90;;;;;;6191140;23;19998;-90
2022/02/23 02:32:05;;;;;;;15.63;2.90;;;6.20;99.90;;;;;;6165941;23;20016;-89
2022/02/23 02:34:31;;;;;;;11.52;2.58;;;6.20;99.90;;;;;;6194496;23;20112;-89
2022/02/23 02:36:56;;;;;;;18.20;2.97;;;6.20;99.90;;;;;;6163399;23;20462;-89
2022/02/23 02:39:24;;;;;;;19.50;3.08;;;6.10;99.90;;;;;;6135649;23;20408;-89
2022/02/23 02:41:50;;;;;;;18.15;3.13;;;6.10;99.90;;;;;;6159866;23;20043;-89
2022/02/23 02:44:16;;;;;;;24.38;4.32;;;6.00;99.90;;;;;;6136227;23;20037;-90
2022/02/23 02:46:42;;;;;;;21.40;3.33;;;6.10;99.90;;;;;;6162519;23;20008;-89
2022/02/23 02:49:08;;;;;;;13.27;2.47;;;6.10;99.90;;;;;;6188492;23;20007;-89
2022/02/23 02:51:34;;;;;;;19.80;2.92;;;6.10;99.90;;;;;;6161887;23;20009;-89
2022/02/23 02:54:00;;;;;;;12.60;2.55;;;6.10;99.90;;;;;;6137933;23;20055;-90
2022/02/23 02:56:25;;;;;;;16.25;3.10;;;6.00;99.90;;;;;;6113009;23;20005;-90
2022/02/23 02:58:54;;;;;;;14.38;3.88;;;6.00;99.90;;;;;;6137631;23;20008;-90
2022/02/23 03:01:25;;;;;;;15.27;3.20;;;6.00;99.90;;;;;;6162699;23;20005;-90
2022/02/23 03:03:51;;;;;;;15.75;2.92;;;6.00;99.90;;;;;;6139249;23;20435;-90
2022/02/23 03:06:17;;;;;;;21.13;4.53;;;6.00;99.90;;;;;;6166420;23;20016;-90
2022/02/23 03:08:44;;;;;;;24.98;5.93;;;6.00;99.90;;;;;;6200251;23;20001;-90
2022/02/23 03:11:09;;;;;;;21.58;3.65;;;5.90;99.90;;;;;;6191372;23;20001;-89
2022/02/23 03:13:35;;;;;;;17.67;2.67;;;5.90;99.90;;;;;;6189287;23;20016;-89
2022/02/23 03:16:01;;;;;;;16.85;3.67;;;6.00;99.90;;;;;;6162890;23;20005;-91
2022/02/23 03:18:27;;;;;;;18.60;3.03;;;6.00;99.90;;;;;;6162269;23;20344;-89
2022/02/23 03:20:53;;;;;;;19.83;3.13;;;5.90;99.90;;;;;;6162118;23;20405;-90
2022/02/23 03:23:18;;;;;;;18.20;4.10;;;5.90;99.90;;;;;;6161740;23;20013;-90
2022/02/23 03:25:44;;;;;;;21.38;3.13;;;5.90;99.90;;;;;;6161942;23;20031;-89
2022/02/23 03:28:10;;;;;;;22.52;3.25;;;5.90;99.90;;;;;;6162255;23;20012;-89
2022/02/23 03:30:38;;;;;;;16.63;2.65;;;5.90;99.90;;;;;;6162011;23;20005;-88
2022/02/23 03:33:04;;;;;;;24.42;3.13;;;5.90;99.90;;;;;;6187952;23;20001;-89
2022/02/23 03:35:31;;;;;;;18.42;3.20;;;5.80;99.90;;;;;;6161554;23;20032;-89
2022/02/23 03:37:58;;;;;;;17.42;3.50;;;5.80;99.90;;;;;;6161544;23;20048;-89
2022/02/23 03:40:24;;;;;;;17.15;3.33;;;5.80;99.90;;;;;;6161454;23;20005;-90
2022/02/23 03:42:51;;;;;;;16.17;2.80;;;5.70;99.90;;;;;;6156598;23;20013;-90
2022/02/23 03:45:17;;;;;;;14.75;3.05;;;5.70;99.90;;;;;;6132104;23;20084;-89
2022/02/23 03:47:42;;;;;;;13.18;3.20;;;5.70;99.90;;;;;;6131841;23;20001;-89
2022/02/23 03:50:09;;;;;;;14.45;2.63;;;5.80;99.90;;;;;;6131960;23;20009;-90
2022/02/23 03:52:34;;;;;;;19.02;3.40;;;5.70;99.90;;;;;;6157908;23;20064;-89
2022/02/23 03:55:00;;;;;;;14.68;2.97;;;5.70;99.90;;;;;;6157343;23;20432;-90
2022/02/23 03:57:25;;;;;;;18.98;3.00;;;5.70;99.90;;;;;;6132039;23;20096;-90
2022/02/23 03:59:51;;;;;;;12.65;3.22;;;5.70;99.90;;;;;;6156594;23;20016;-89
2022/02/23 04:02:17;;;;;;;16.15;3.28;;;5.70;99.90;;;;;;6156992;23;20032;-89
2022/02/23 04:04:42;;;;;;;18.00;2.70;;;5.70;99.90;;;;;;6157786;23;20412;-90
2022/02/23 04:07:09;;;;;;;20.85;3.13;;;5.70;99.90;;;;;;6157843;23;20008;-90
2022/02/23 04:09:35;;;;;;;17.75;3.08;;;5.70;99.90;;;;;;6160774;23;20002;-90
2022/02/23 04:12:01;;;;;;;18.27;3.88;;;5.60;99.90;;;;;;6158857;23;20080;-90
2022/02/23 04:14:26;;;;;;;21.77;3.53;;;5.70;99.90;;;;;;6131661;23;20009;-89
2022/02/23 04:16:52;;;;;;;17.58;2.85;;;5.60;99.90;;;;;;6107457;23;20006;-90
2022/02/23 04:19:18;;;;;;;19.15;3.50;;;5.70;99.90;;;;;;6131916;23;20005;-89
2022/02/23 04:21:43;;;;;;;19.10;3.50;;;5.60;99.90;;;;;;6131969;23;20005;-90
2022/02/23 04:24:09;;;;;;;18.17;3.47;;;5.60;99.90;;;;;;6156561;23;20064;-90
2022/02/23 04:26:35;;;;;;;23.98;4.25;;;5.60;99.90;;;;;;6156366;23;20320;-90
2022/02/23 04:29:04;;;;;;;18.17;4.32;;;5.60;99.90;;;;;;6157668;23;20368;-90
2022/02/23 04:31:32;;;;;;;21.05;3.20;;;5.50;99.90;;;;;;6132359;23;20009;-90
2022/02/23 04:33:58;;;;;;;22.45;3.47;;;5.50;99.90;;;;;;6155976;23;20009;-90
2022/02/23 04:36:24;;;;;;;15.18;3.35;;;5.40;99.90;;;;;;6157730;23;20009;-89
2022/02/23 04:38:49;;;;;;;14.70;3.10;;;5.40;99.90;;;;;;6131924;23;20057;-90
2022/02/23 04:41:15;;;;;;;23.35;3.92;;;5.40;99.90;;;;;;6107266;23;20014;-90
2022/02/23 04:43:41;;;;;;;16.35;3.25;;;5.40;99.90;;;;;;6156550;23;20420;-90
2022/02/23 04:46:11;;;;;;;19.70;3.50;;;5.30;99.90;;;;;;6131510;23;20021;-90
2022/02/23 04:48:38;;;;;;;21.65;4.35;;;5.30;99.90;;;;;;6157288;23;20005;-89
2022/02/23 04:51:04;;;;;;;15.55;3.13;;;5.30;99.90;;;;;;6155958;23;20142;-90
2022/02/23 04:53:30;;;;;;;19.48;4.35;;;5.30;99.90;;;;;;6156010;23;20013;-90
2022/02/23 04:55:56;;;;;;;23.58;4.85;;;5.30;99.90;;;;;;6156178;23;20440;-90
2022/02/23 04:58:22;;;;;;;13.70;2.60;;;5.30;99.90;;;;;;6157945;23;20002;-90
2022/02/23 05:00:48;;;;;;;15.32;3.47;;;5.30;99.90;;;;;;6132062;23;20017;-89
2022/02/23 05:03:14;;;;;;;16.42;3.47;;;5.30;99.90;;;;;;6156206;23;20373;-90
2022/02/23 05:05:40;;;;;;;17.85;4.25;;;5.30;99.90;;;;;;6156662;23;20017;-89
2022/02/23 05:08:06;;;;;;;16.08;3.47;;;5.20;99.90;;;;;;6156837;23;20416;-90
2022/02/23 05:10:32;;;;;;;16.65;3.28;;;5.20;99.90;;;;;;6156570;23;20013;-90
2022/02/23 05:12:58;;;;;;;18.30;3.90;;;5.20;99.90;;;;;;6156086;23;20077;-89
2022/02/23 05:15:24;;;;;;;16.55;3.30;;;5.20;99.90;;;;;;6157447;23;20028;-89
2022/02/23 05:17:49;;;;;;;22.25;3.60;;;5.20;99.90;;;;;;6156291;23;20010;-90
2022/02/23 05:20:15;;;;;;;23.38;3.85;;;5.20;99.90;;;;;;6156072;23;20084;-90
2022/02/23 05:22:45;;;;;;;18.95;4.38;;;5.30;99.90;;;;;;6132327;23;20071;-89
2022/02/23 05:25:11;;;;;;;17.90;3.53;;;5.30;99.90;;;;;;6124710;23;20006;-89
2022/02/23 05:27:38;;;;;;;20.08;3.85;;;5.30;99.90;;;;;;6158807;23;20302;-89
2022/02/23 05:30:04;;;;;;;17.48;4.10;;;5.30;99.90;;;;;;6156462;23;20092;-89
2022/02/23 05:32:29;;;;;;;22.02;3.55;;;5.30;99.90;;;;;;6157918;23;20062;-90
2022/02/23 05:34:55;;;;;;;20.17;4.05;;;5.30;99.90;;;;;;6131775;23;20002;-89
2022/02/23 05:37:21;;;;;;;20.95;3.78;;;5.30;99.90;;;;;;6131316;23;20009;-90
2022/02/23 05:39:46;;;;;;;16.83;3.90;;;5.30;99.90;;;;;;6157109;23;20032;-89
2022/02/23 05:42:12;;;;;;;21.75;3.88;;;5.30;99.90;;;;;;6156843;23;20017;-90
2022/02/23 05:44:37;;;;;;;23.52;3.88;;;5.30;99.90;;;;;;6131182;23;20014;-89
2022/02/23 05:47:03;;;;;;;23.65;4.00;;;5.30;99.90;;;;;;6131647;23;20310;-89
2022/02/23 05:49:29;;;;;;;22.08;3.60;;;5.30;99.90;;;;;;6157866;23;20086;-89
2022/02/23 05:51:54;;;;;;;24.27;3.88;;;5.30;99.90;;;;;;6158559;23;20064;-90
2022/02/23 05:54:20;;;;;;;21.77;3.65;;;5.30;99.90;;;;;;6158841;23;20044;-90
2022/02/23 05:56:47;;;;;;;17.25;3.53;;;5.20;99.90;;;;;;6132779;23;20027;-89
2022/02/23 05:59:12;;;;;;;15.25;4.03;;;5.20;99.90;;;;;;6109667;23;20017;-89
2022/02/23 06:01:38;;;;;;;26.85;4.95;;;5.20;99.90;;;;;;6132772;23;20432;-90
2022/02/23 06:04:04;;;;;;;33.33;4.40;;;5.10;99.90;;;;;;6156161;23;20020;-89
2022/02/23 06:06:31;;;;;;;18.48;4.00;;;5.10;99.90;;;;;;6157794;23;20002;-90
2022/02/23 06:08:57;;;;;;;22.77;3.47;;;5.10;99.90;;;;;;6133887;23;20013;-89
2022/02/23 06:11:23;;;;;;;16.75;3.40;;;5.10;99.90;;;;;;6155423;23;20037;-89
2022/02/23 06:13:53;;;;;;;24.95;3.45;;;5.00;99.90;;;;;;6131794;23;20012;-89
2022/02/23 06:16:23;;;;;;;17.60;3.85;;;5.10;99.90;;;;;;6154378;23;20008;-89
2022/02/23 06:18:50;;;;;;;19.38;3.85;;;5.00;99.90;;;;;;6156699;23;19998;-89
2022/02/23 06:21:16;;;;;;;17.02;3.45;;;5.00;99.90;;;;;;6156387;23;20014;-91
2022/02/23 06:23:44;;;;;;;19.95;3.85;;;5.00;99.90;;;;;;6156206;23;20011;-89
2022/02/23 06:26:09;;;;;;;16.70;3.60;;;5.00;99.90;;;;;;6132630;23;20006;-89
2022/02/23 06:28:35;;;;;;;17.35;3.65;;;5.00;99.90;;;;;;6157630;23;20064;-89
2022/02/23 06:31:01;;;;;;;15.15;3.83;;;5.00;99.90;;;;;;6131143;23;20046;-90
2022/02/23 06:33:26;;;;;;;18.17;3.75;;;5.00;99.90;;;;;;6106457;23;20037;-90
2022/02/23 06:35:53;;;;;;;21.70;4.15;;;5.00;99.90;;;;;;6131934;23;20013;-90
2022/02/23 06:38:20;;;;;;;17.67;3.50;;;5.00;99.90;;;;;;6157578;23;20008;-89
2022/02/23 06:40:48;;;;;;;21.35;4.00;;;5.00;99.90;;;;;;6157106;23;20029;-90
2022/02/23 06:43:18;;;;;;;15.73;4.50;;;4.90;99.90;;;;;;6162231;23;20013;-89
2022/02/23 06:45:46;;;;;;;15.77;3.53;;;4.90;99.90;;;;;;6187111;23;20001;-90
2022/02/23 06:48:11;;;;;;;32.08;5.85;;;4.90;99.90;;;;;;6187985;23;20001;-89
2022/02/23 06:50:39;;;;;;;25.35;3.65;;;5.00;99.90;;;;;;6138308;23;20487;-89
2022/02/23 06:53:07;;;;;;;17.38;3.55;;;4.90;99.90;;;;;;6162531;23;20016;-89
2022/02/23 06:55:34;;;;;;;17.15;3.65;;;4.90;99.90;;;;;;6188730;23;20009;-89
2022/02/23 06:57:59;;;;;;;14.68;3.30;;;4.90;99.90;;;;;;6161952;23;20005;-89
2022/02/23 07:00:25;;;;;;;19.13;3.22;;;4.90;99.90;;;;;;6187806;23;20076;-89
2022/02/23 07:02:53;;;;;;;20.77;3.45;;;4.90;99.90;;;;;;6187017;23;20024;-89
2022/02/23 07:05:19;;;;;;;16.60;3.85;;;4.90;99.90;;;;;;6187329;23;20008;-88
2022/02/23 07:07:46;;;;;;;19.15;4.28;;;4.90;99.90;;;;;;6161645;23;20005;-89
2022/02/23 07:10:21;;;;;;;18.98;4.40;;;4.90;99.90;;;;;;6161554;23;20427;-88
2022/02/23 07:12:47;;;;;;;18.73;3.85;;;4.90;99.90;;;;;;6161768;23;20005;-89
2022/02/23 07:15:12;;;;;;;17.98;3.95;;;4.90;99.90;;;;;;6161640;23;19997;-88
2022/02/23 07:17:38;;;;;;;26.38;3.45;;;4.90;99.90;;;;;;6137092;23;20024;-89
2022/02/23 07:20:04;;;;;;;14.30;3.28;;;4.90;99.90;;;;;;6161583;23;20207;-88
2022/02/23 07:22:30;;;;;;;16.52;4.47;;;4.90;99.90;;;;;;6114012;23;20092;-89
2022/02/23 07:24:56;;;;;;;14.82;2.97;;;5.00;99.90;;;;;;6137764;23;20068;-89
2022/02/23 07:27:23;;;;;;;18.20;3.55;;;5.00;99.90;;;;;;6164072;23;20121;-88
2022/02/23 07:29:48;;;;;;;19.08;4.15;;;5.00;99.90;;;;;;6162971;23;20013;-89
2022/02/23 07:32:14;;;;;;;14.02;3.28;;;5.00;99.90;;;;;;6112625;23;20013;-89
2022/02/23 07:34:41;;;;;;;18.88;3.88;;;5.00;99.90;;;;;;6161751;23;20001;-88
2022/02/23 07:37:07;;;;;;;20.10;3.58;;;5.00;99.90;;;;;;6162276;23;20415;-89
2022/02/23 07:39:34;;;;;;;26.08;3.75;;;5.00;99.90;;;;;;6137631;23;20013;-88
2022/02/23 07:41:59;;;;;;;17.08;4.25;;;5.00;99.90;;;;;;6132678;23;20021;-91
2022/02/23 07:44:30;;;;;;;18.08;3.42;;;5.00;99.90;;;;;;6157890;23;20081;-91
2022/02/23 07:46:56;;;;;;;24.80;5.15;;;5.00;99.90;;;;;;6156858;23;20012;-89
2022/02/23 07:49:23;;;;;;;22.02;4.07;;;5.00;99.90;;;;;;6132448;23;20096;-89
2022/02/23 07:51:49;;;;;;;16.17;4.10;;;5.10;99.90;;;;;;6156773;23;20555;-88
2022/02/23 07:54:14;;;;;;;23.08;4.07;;;5.10;99.90;;;;;;6107652;23;20013;-90
2022/02/23 07:56:40;;;;;;;22.38;5.30;;;5.10;99.90;;;;;;6157444;23;19998;-88
2022/02/23 07:59:06;;;;;;;24.10;5.50;;;5.10;99.90;;;;;;6158053;23;20013;-89
2022/02/23 08:01:34;;;;;;;21.90;3.75;;;5.20;99.90;;;;;;6159079;23;20008;-89
2022/02/23 08:04:00;;;;;;;17.15;3.80;;;5.20;99.90;;;;;;6158694;23;20420;-89
2022/02/23 08:06:26;;;;;;;14.02;3.80;;;5.30;99.90;;;;;;6157992;23;19997;-91
2022/02/23 08:08:56;;;;;;;19.27;3.70;;;5.30;99.90;;;;;;6157254;23;20002;-94
2022/02/23 08:11:26;;;;;;;24.30;5.55;;;5.30;99.90;;;;;;6158202;23;20010;-90
2022/02/23 08:14:03;;;;;;;21.73;3.88;;;5.40;99.90;;;;;;6158729;23;20036;-91
2022/02/23 08:22:16;;;;;;;20.83;3.67;;;5.50;99.90;;;;;;6140871;23;20005;-90
2022/02/23 08:24:47;;;;;;;25.85;3.72;;;5.60;99.90;;;;;;6131961;23;20009;-89
2022/02/23 08:27:16;;;;;;;15.63;3.80;;;5.70;99.90;;;;;;6157191;23;20001;-89
2022/02/23 08:29:42;;;;;;;23.42;4.32;;;5.70;99.90;;;;;;6154177;23;20566;-90
2022/02/23 08:32:10;;;;;;;16.20;3.50;;;5.80;99.90;;;;;;6156515;23;20027;-89
2022/02/23 08:34:38;;;;;;;17.67;3.97;;;5.90;99.90;;;;;;6156097;23;20002;-89
2022/02/23 08:37:05;;;;;;;23.77;5.25;;;5.90;99.90;;;;;;6156652;23;20467;-89
2022/02/23 08:39:32;;;;;;;23.02;4.88;;;6.00;99.90;;;;;;6156244;23;19998;-88
2022/02/23 08:41:58;;;;;;;22.95;4.85;;;6.10;99.90;;;;;;6131173;23;20483;-88
2022/02/23 08:44:24;;;;;;;20.15;4.45;;;6.10;99.90;;;;;;6155897;23;20014;-88
2022/02/23 08:46:50;;;;;;;19.48;4.82;;;6.30;99.90;;;;;;6131195;23;20036;-88
2022/02/23 08:49:16;;;;;;;21.33;4.97;;;6.30;99.90;;;;;;6160200;23;20005;-88
2022/02/23 08:51:46;;;;;;;24.38;4.88;;;6.40;99.90;;;;;;6157640;23;20429;-88
2022/02/23 08:54:14;;;;;;;19.88;4.45;;;6.40;99.90;;;;;;6158026;23;20071;-89
2022/02/23 08:56:40;;;;;;;18.73;3.83;;;6.50;99.90;;;;;;6156513;23;20012;-88
2022/02/23 08:59:05;;;;;;;17.05;4.30;;;6.60;99.90;;;;;;6158179;23;20479;-88
2022/02/23 09:01:32;;;;;;;17.63;4.13;;;6.60;99.90;;;;;;6131821;23;20083;-89
2022/02/23 09:04:01;;;;;;;19.88;4.45;;;6.70;99.90;;;;;;6155978;23;20057;-90
2022/02/23 09:06:27;;;;;;;19.30;5.03;;;6.80;99.90;;;;;;6132244;23;20012;-89
2022/02/23 09:08:52;;;;;;;15.95;4.93;;;6.80;99.90;;;;;;6156363;23;20009;-92
2022/02/23 09:11:18;;;;;;;18.55;4.97;;;6.90;99.90;;;;;;6107491;23;20140;-88
2022/02/23 09:13:44;;;;;;;15.05;4.60;;;6.90;99.90;;;;;;6131938;23;20381;-88
2022/02/23 09:16:10;;;;;;;15.60;4.28;;;7.00;99.90;;;;;;6160774;23;20006;-88
2022/02/23 09:18:35;;;;;;;19.92;5.22;;;7.10;99.90;;;;;;6140162;23;20033;-90
2022/02/23 09:21:01;;;;;;;15.60;4.50;;;7.10;99.90;;;;;;6173627;23;20012;-89
2022/02/23 09:23:28;;;;;;;17.77;5.32;;;7.30;99.90;;;;;;6164695;23;20021;-89
2022/02/23 09:25:55;;;;;;;19.38;5.47;;;7.30;99.90;;;;;;6167075;23;20005;-92
2022/02/23 09:28:21;;;;;;;15.00;4.90;;;7.40;99.90;;;;;;6140692;23;20030;-89
2022/02/23 09:30:47;;;;;;;18.90;5.75;;;7.50;99.90;;;;;;6161734;23;20009;-90
2022/02/23 09:33:14;;;;;;;16.73;4.75;;;7.60;99.90;;;;;;6164469;23;20029;-89
2022/02/23 09:35:40;;;;;;;24.13;5.13;;;7.60;99.90;;;;;;6162697;23;20001;-89
2022/02/23 09:38:05;;;;;;;15.18;5.00;;;7.80;99.90;;;;;;6134740;23;20093;-89
2022/02/23 09:40:31;;;;;;;17.63;5.18;;;7.90;99.90;;;;;;6132826;23;20070;-89
2022/02/23 09:42:57;;;;;;;18.30;4.80;;;8.00;99.90;;;;;;6156253;23;20113;-90
2022/02/23 09:45:26;;;;;;;24.67;5.35;;;8.00;99.90;;;;;;6107717;23;20005;-89
2022/02/23 09:47:52;;;;;;;18.35;5.03;;;8.10;99.90;;;;;;6155813;23;20409;-89
2022/02/23 09:50:21;;;;;;;15.32;5.65;;;8.20;99.90;;;;;;6155606;23;20044;-88
2022/02/23 09:52:52;;;;;;;18.90;5.93;;;8.30;99.90;;;;;;6133518;23;20331;-89
2022/02/23 09:55:20;;;;;;;21.80;6.20;;;8.40;99.90;;;;;;6158447;23;20385;-89
2022/02/23 09:57:47;;;;;;;19.13;5.75;;;8.50;99.90;;;;;;6155898;23;20089;-89
2022/02/23 10:00:13;;;;;;;14.75;5.28;;;8.60;99.90;;;;;;6106494;23;20010;-89
2022/02/23 10:02:39;;;;;;;18.75;6.18;;;8.70;99.90;;;;;;6155199;23;20009;-88
2022/02/23 10:05:07;;;;;;;21.30;6.82;;;8.70;99.90;;;;;;6157597;23;20045;-88
2022/02/23 10:07:38;;;;;;;15.88;5.82;;;8.90;99.90;;;;;;6157739;23;19998;-89
2022/02/23 10:10:13;;;;;;;19.35;7.15;;;8.90;99.90;;;;;;6130803;23;20009;-89
2022/02/23 10:12:41;;;;;;;18.00;6.47;;;9.00;99.90;;;;;;6157075;23;20016;-89
2022/02/23 10:15:16;;;;;;;20.50;6.07;;;9.10;99.90;;;;;;6155988;23;20008;-89
2022/02/23 10:17:51;;;;;;;19.63;7.25;;;9.10;99.90;;;;;;6155615;23;20009;-89
2022/02/23 10:20:26;;;;;;;17.85;6.57;;;9.20;99.90;;;;;;6155376;23;20305;-90
2022/02/23 10:23:00;;;;;;;20.60;6.70;;;9.30;99.90;;;;;;6157127;23;19997;-90
2022/02/23 10:25:30;;;;;;;19.48;6.72;;;9.40;99.90;;;;;;6155813;23;20006;-89
2022/02/23 10:28:07;;;;;;;15.73;5.40;;;9.40;99.90;;;;;;6157007;23;20008;-89
2022/02/23 10:30:45;;;;;;;19.38;7.05;;;9.50;99.90;;;;;;6157912;23;20267;-90
2022/02/23 10:33:23;;;;;;;18.50;6.35;;;9.60;99.90;;;;;;6156457;23;20093;-89
2022/02/23 10:35:50;;;;;;;25.02;6.35;;;9.70;99.90;;;;;;6155600;23;20005;-90
2022/02/23 10:38:22;;;;;;;17.17;5.93;;;9.70;99.90;;;;;;6155202;23;20008;-90
2022/02/23 10:40:48;;;;;;;18.27;5.90;;;9.80;99.90;;;;;;6155402;23;20001;-89
2022/02/23 10:43:27;;;;;;;18.40;5.35;;;9.90;99.90;;;;;;6130492;23;20063;-89
2022/02/23 10:46:01;;;;;;;18.77;6.40;;;10.00;99.90;;;;;;6155038;23;20001;-89
2022/02/23 10:48:48;;;;;;;17.60;5.63;;;10.10;99.90;;;;;;6156442;23;20005;-88
2022/02/23 10:51:24;;;;;;;17.27;4.97;;;10.10;99.90;;;;;;6154675;23;20072;-88
2022/02/23 10:53:53;;;;;;;16.15;4.90;;;10.20;99.90;;;;;;6154878;23;20036;-88
2022/02/23 10:56:35;;;;;;;18.75;6.50;;;10.30;99.90;;;;;;6154264;23;19997;-90
2022/02/23 10:59:04;;;;;;;16.67;4.10;;;10.40;99.90;;;;;;6156504;23;20002;-88
2022/02/23 11:01:31;;;;;;;12.90;4.15;;;10.50;99.90;;;;;;6154766;23;20005;-88
2022/02/23 11:04:00;;;;;;;17.98;4.25;;;10.50;99.90;;;;;;6156310;23;20013;-88
2022/02/23 11:06:27;;;;;;;14.15;3.72;;;10.70;99.90;;;;;;6157078;23;20037;-88
2022/02/23 11:08:55;;;;;;;12.98;3.45;;;10.70;99.90;;;;;;6109183;23;20009;-88
2022/02/23 11:11:22;;;;;;;12.77;4.32;;;10.90;99.90;;;;;;6156618;23;20030;-92
2022/02/23 11:13:49;;;;;;;12.75;3.20;;;10.90;99.90;;;;;;6158119;23;20008;-89
2022/02/23 11:16:15;;;;;;;12.70;3.78;;;10.90;99.90;;;;;;6159134;23;20002;-88
2022/02/23 11:18:43;;;;;;;12.27;3.45;;;11.00;99.90;;;;;;6165432;23;20002;-90
2022/02/23 11:21:12;;;;;;;16.02;3.75;;;11.10;99.90;;;;;;6171915;23;20001;-89
2022/02/23 11:23:39;;;;;;;9.00;2.80;;;11.20;99.90;;;;;;6159731;23;20002;-89
2022/02/23 11:26:06;;;;;;;12.93;2.70;;;11.20;99.90;;;;;;6133815;23;20505;-91
2022/02/23 11:28:35;;;;;;;13.05;3.30;;;11.30;99.90;;;;;;6132963;23;20008;-90
2022/02/23 11:31:13;;;;;;;16.35;3.53;;;11.30;99.90;;;;;;6133059;23;20048;-88
2022/02/23 11:34:04;;;;;;;12.25;3.72;;;11.40;99.90;;;;;;6158580;23;20001;-88
2022/02/23 11:36:48;;;;;;;17.25;4.57;;;11.40;99.90;;;;;;6159009;23;20049;-89
2022/02/23 11:39:20;;;;;;;10.82;2.97;;;11.50;99.90;;;;;;6156792;23;20006;-89
2022/02/23 11:41:53;;;;;;;10.40;3.30;;;11.60;99.90;;;;;;6167577;23;20163;-89
2022/02/23 11:44:50;;;;;;;11.52;3.13;;;11.70;99.90;;;;;;6188180;23;20037;-89
2022/02/23 11:47:24;;;;;;;9.65;2.33;;;11.80;99.90;;;;;;6170155;23;20001;-89
2022/02/23 11:49:56;;;;;;;12.52;2.88;;;11.90;99.90;;;;;;6186935;23;20444;-86
2022/02/23 11:52:29;;;;;;;16.25;3.80;;;11.90;99.90;;;;;;6160535;23;20040;-87
2022/02/23 11:55:08;;;;;;;10.57;3.10;;;12.00;99.90;;;;;;6160937;23;20059;-90
2022/02/23 11:57:40;;;;;;;16.80;3.25;;;12.10;99.90;;;;;;6161501;23;19997;-89
2022/02/23 12:00:09;;;;;;;13.82;3.15;;;12.20;99.90;;;;;;6187885;23;20133;-89
2022/02/23 12:02:35;;;;;;;11.15;3.08;;;12.30;99.90;;;;;;6161672;23;20009;-89
2022/02/23 12:05:07;;;;;;;12.43;3.05;;;12.30;99.90;;;;;;6188243;23;20008;-88
2022/02/23 12:07:49;;;;;;;14.15;3.20;;;12.40;99.90;;;;;;6161610;23;20024;-89
2022/02/23 12:10:27;;;;;;;10.93;3.13;;;12.50;99.90;;;;;;6161576;23;20351;-89
2022/02/23 12:12:53;;;;;;;11.88;3.08;;;12.50;99.90;;;;;;6161357;23;20001;-90
2022/02/23 12:15:18;;;;;;;13.75;2.88;;;12.50;99.90;;;;;;6136785;23;20037;-89
2022/02/23 12:17:52;;;;;;;11.60;2.88;;;12.50;99.90;;;;;;6161164;23;20012;-88
2022/02/23 12:20:36;;;;;;;7.15;2.22;;;12.60;99.90;;;;;;6161174;23;20009;-89
2022/02/23 12:23:09;;;;;;;10.98;2.85;;;12.70;99.90;;;;;;6161815;23;20096;-90
2022/02/23 12:26:16;;;;;;;16.08;3.65;;;12.70;99.90;;;;;;6187548;23;20012;-89
2022/02/23 12:28:47;;;;;;;11.38;2.97;;;12.80;99.90;;;;;;6038790;23;20086;-89
2022/02/23 12:31:15;;;;;;;10.95;2.70;;;12.90;99.90;;;;;;6144402;23;20336;-90
2022/02/23 12:33:42;;;;;;;8.40;2.40;;;12.90;99.90;;;;;;6138596;23;20031;-89
2022/02/23 12:36:14;;;;;;;11.07;2.80;;;13.00;99.90;;;;;;6163538;23;20001;-89
2022/02/23 12:38:47;;;;;;;8.32;2.40;;;13.00;99.90;;;;;;6162574;23;20415;-89
2022/02/23 12:41:21;;;;;;;7.47;2.10;;;13.00;99.90;;;;;;6162330;23;20424;-92
2022/02/23 12:44:15;;;;;;;13.50;2.53;;;13.00;99.90;;;;;;6161487;23;20021;-89
2022/02/23 12:46:47;;;;;;;12.45;3.42;;;13.00;99.90;;;;;;6162330;23;20001;-90
2022/02/23 12:49:14;;;;;;;9.63;2.67;;;13.10;99.90;;;;;;6163929;23;20011;-89
2022/02/23 12:51:43;;;;;;;13.35;2.67;;;13.10;99.90;;;;;;6141835;23;20036;-90
2022/02/23 12:54:11;;;;;;;10.93;2.33;;;13.10;99.90;;;;;;6169320;23;20004;-90